<?xml version="1.0" encoding="UTF-8" standalone="no" ?>
<gpx xmlns="http://www.topografix.com/GPX/1/1" xmlns:xsi="http://www.w3.org/2001/XMLSchema-instance" xsi:schemaLocation="http://www.topografix.com/GPX/1/1 http://www.topografix.com/GPX/1/1/gpx.xsd" version="1.1" creator="VisuGPX - https://www.visugpx.com">
  <metadata>
    <name>Cirque de Naves</name>
    <desc><![CDATA[Boucle variée autour du cirque de Naves, à proximité des Vans]]></desc>
  </metadata>
  <trk>
    <name><![CDATA[2026-03-22 11:14:07]]></name>
    <trkseg>
      <trkpt lat="44.4027" lon="4.10954">
        <ele>272.19</ele>
        <time>2026-03-22T08:06:14Z</time>
      </trkpt>
      <trkpt lat="44.4027" lon="4.10954">
        <ele>272.19</ele>
        <time>2026-03-22T08:06:16Z</time>
      </trkpt>
      <trkpt lat="44.40272" lon="4.10957">
        <ele>272.19</ele>
        <time>2026-03-22T08:06:18Z</time>
      </trkpt>
      <trkpt lat="44.40278" lon="4.10968">
        <ele>270.75</ele>
        <time>2026-03-22T08:06:28Z</time>
      </trkpt>
      <trkpt lat="44.40288" lon="4.10989">
        <ele>271.23</ele>
        <time>2026-03-22T08:06:51Z</time>
      </trkpt>
      <trkpt lat="44.40301" lon="4.10994">
        <ele>273.15</ele>
        <time>2026-03-22T08:07:06Z</time>
      </trkpt>
      <trkpt lat="44.40302" lon="4.10993">
        <ele>271.71</ele>
        <time>2026-03-22T08:07:08Z</time>
      </trkpt>
      <trkpt lat="44.40304" lon="4.10992">
        <ele>274.11</ele>
        <time>2026-03-22T08:07:10Z</time>
      </trkpt>
      <trkpt lat="44.40306" lon="4.10989">
        <ele>274.11</ele>
        <time>2026-03-22T08:07:23Z</time>
      </trkpt>
      <trkpt lat="44.40316" lon="4.10988">
        <ele>274.59</ele>
        <time>2026-03-22T08:07:37Z</time>
      </trkpt>
      <trkpt lat="44.40325" lon="4.1099">
        <ele>275.56</ele>
        <time>2026-03-22T08:07:48Z</time>
      </trkpt>
      <trkpt lat="44.40339" lon="4.11">
        <ele>277.96</ele>
        <time>2026-03-22T08:08:02Z</time>
      </trkpt>
      <trkpt lat="44.40343" lon="4.11002">
        <ele>277.96</ele>
        <time>2026-03-22T08:08:17Z</time>
      </trkpt>
      <trkpt lat="44.40349" lon="4.11015">
        <ele>279.4</ele>
        <time>2026-03-22T08:08:32Z</time>
      </trkpt>
      <trkpt lat="44.40355" lon="4.11033">
        <ele>281.32</ele>
        <time>2026-03-22T08:08:48Z</time>
      </trkpt>
      <trkpt lat="44.40362" lon="4.11034">
        <ele>283.25</ele>
        <time>2026-03-22T08:09:02Z</time>
      </trkpt>
      <trkpt lat="44.40369" lon="4.11037">
        <ele>286.13</ele>
        <time>2026-03-22T08:09:17Z</time>
      </trkpt>
      <trkpt lat="44.40376" lon="4.11034">
        <ele>287.57</ele>
        <time>2026-03-22T08:09:32Z</time>
      </trkpt>
      <trkpt lat="44.40379" lon="4.11026">
        <ele>289.49</ele>
        <time>2026-03-22T08:09:45Z</time>
      </trkpt>
      <trkpt lat="44.40383" lon="4.11016">
        <ele>290.94</ele>
        <time>2026-03-22T08:09:59Z</time>
      </trkpt>
      <trkpt lat="44.40386" lon="4.11008">
        <ele>292.86</ele>
        <time>2026-03-22T08:10:12Z</time>
      </trkpt>
      <trkpt lat="44.40389" lon="4.10998">
        <ele>294.3</ele>
        <time>2026-03-22T08:10:24Z</time>
      </trkpt>
      <trkpt lat="44.40395" lon="4.10988">
        <ele>295.74</ele>
        <time>2026-03-22T08:10:38Z</time>
      </trkpt>
      <trkpt lat="44.40398" lon="4.10995">
        <ele>297.67</ele>
        <time>2026-03-22T08:10:50Z</time>
      </trkpt>
      <trkpt lat="44.40398" lon="4.1101">
        <ele>299.59</ele>
        <time>2026-03-22T08:11:05Z</time>
      </trkpt>
      <trkpt lat="44.40399" lon="4.11012">
        <ele>299.59</ele>
        <time>2026-03-22T08:11:21Z</time>
      </trkpt>
      <trkpt lat="44.40397" lon="4.11012">
        <ele>300.07</ele>
        <time>2026-03-22T08:11:36Z</time>
      </trkpt>
      <trkpt lat="44.40397" lon="4.1101">
        <ele>300.07</ele>
        <time>2026-03-22T08:11:38Z</time>
      </trkpt>
      <trkpt lat="44.40398" lon="4.11003">
        <ele>298.63</ele>
        <time>2026-03-22T08:11:43Z</time>
      </trkpt>
      <trkpt lat="44.40399" lon="4.10997">
        <ele>297.18</ele>
        <time>2026-03-22T08:11:49Z</time>
      </trkpt>
      <trkpt lat="44.40399" lon="4.10993">
        <ele>295.74</ele>
        <time>2026-03-22T08:12:02Z</time>
      </trkpt>
      <trkpt lat="44.404" lon="4.10998">
        <ele>297.18</ele>
        <time>2026-03-22T08:12:08Z</time>
      </trkpt>
      <trkpt lat="44.404" lon="4.11014">
        <ele>300.07</ele>
        <time>2026-03-22T08:12:24Z</time>
      </trkpt>
      <trkpt lat="44.40402" lon="4.11026">
        <ele>301.99</ele>
        <time>2026-03-22T08:12:36Z</time>
      </trkpt>
      <trkpt lat="44.40404" lon="4.11035">
        <ele>303.43</ele>
        <time>2026-03-22T08:12:49Z</time>
      </trkpt>
      <trkpt lat="44.40402" lon="4.11049">
        <ele>305.36</ele>
        <time>2026-03-22T08:13:03Z</time>
      </trkpt>
      <trkpt lat="44.40403" lon="4.11053">
        <ele>306.32</ele>
        <time>2026-03-22T08:13:17Z</time>
      </trkpt>
      <trkpt lat="44.40406" lon="4.11047">
        <ele>306.8</ele>
        <time>2026-03-22T08:13:41Z</time>
      </trkpt>
      <trkpt lat="44.40407" lon="4.11044">
        <ele>308.24</ele>
        <time>2026-03-22T08:13:58Z</time>
      </trkpt>
      <trkpt lat="44.4041" lon="4.11039">
        <ele>309.2</ele>
        <time>2026-03-22T08:14:12Z</time>
      </trkpt>
      <trkpt lat="44.40412" lon="4.11041">
        <ele>309.68</ele>
        <time>2026-03-22T08:14:31Z</time>
      </trkpt>
      <trkpt lat="44.40415" lon="4.11056">
        <ele>312.57</ele>
        <time>2026-03-22T08:14:46Z</time>
      </trkpt>
      <trkpt lat="44.40417" lon="4.11064">
        <ele>314.97</ele>
        <time>2026-03-22T08:14:59Z</time>
      </trkpt>
      <trkpt lat="44.40417" lon="4.11052">
        <ele>317.37</ele>
        <time>2026-03-22T08:15:13Z</time>
      </trkpt>
      <trkpt lat="44.4042" lon="4.11041">
        <ele>319.3</ele>
        <time>2026-03-22T08:15:23Z</time>
      </trkpt>
      <trkpt lat="44.40427" lon="4.11031">
        <ele>322.18</ele>
        <time>2026-03-22T08:15:37Z</time>
      </trkpt>
      <trkpt lat="44.40429" lon="4.11026">
        <ele>323.62</ele>
        <time>2026-03-22T08:15:44Z</time>
      </trkpt>
      <trkpt lat="44.40433" lon="4.11015">
        <ele>326.02</ele>
        <time>2026-03-22T08:15:55Z</time>
      </trkpt>
      <trkpt lat="44.40438" lon="4.10994">
        <ele>327.47</ele>
        <time>2026-03-22T08:16:13Z</time>
      </trkpt>
      <trkpt lat="44.40443" lon="4.10974">
        <ele>328.43</ele>
        <time>2026-03-22T08:16:28Z</time>
      </trkpt>
      <trkpt lat="44.4045" lon="4.10952">
        <ele>329.39</ele>
        <time>2026-03-22T08:16:46Z</time>
      </trkpt>
      <trkpt lat="44.40456" lon="4.10933">
        <ele>330.83</ele>
        <time>2026-03-22T08:17:02Z</time>
      </trkpt>
      <trkpt lat="44.40462" lon="4.10928">
        <ele>331.31</ele>
        <time>2026-03-22T08:17:15Z</time>
      </trkpt>
      <trkpt lat="44.40462" lon="4.10929">
        <ele>331.31</ele>
        <time>2026-03-22T08:17:41Z</time>
      </trkpt>
      <trkpt lat="44.40462" lon="4.10933">
        <ele>331.31</ele>
        <time>2026-03-22T08:18:06Z</time>
      </trkpt>
      <trkpt lat="44.40462" lon="4.10929">
        <ele>331.31</ele>
        <time>2026-03-22T08:18:31Z</time>
      </trkpt>
      <trkpt lat="44.4046" lon="4.10927">
        <ele>331.31</ele>
        <time>2026-03-22T08:18:57Z</time>
      </trkpt>
      <trkpt lat="44.40465" lon="4.10901">
        <ele>331.31</ele>
        <time>2026-03-22T08:19:17Z</time>
      </trkpt>
      <trkpt lat="44.40465" lon="4.10899">
        <ele>331.31</ele>
        <time>2026-03-22T08:19:30Z</time>
      </trkpt>
      <trkpt lat="44.40463" lon="4.10885">
        <ele>332.27</ele>
        <time>2026-03-22T08:19:41Z</time>
      </trkpt>
      <trkpt lat="44.40463" lon="4.10883">
        <ele>332.75</ele>
        <time>2026-03-22T08:19:43Z</time>
      </trkpt>
      <trkpt lat="44.40463" lon="4.10857">
        <ele>335.16</ele>
        <time>2026-03-22T08:20:03Z</time>
      </trkpt>
      <trkpt lat="44.40462" lon="4.10835">
        <ele>336.6</ele>
        <time>2026-03-22T08:20:20Z</time>
      </trkpt>
      <trkpt lat="44.40458" lon="4.10818">
        <ele>339</ele>
        <time>2026-03-22T08:20:36Z</time>
      </trkpt>
      <trkpt lat="44.40454" lon="4.10803">
        <ele>340.92</ele>
        <time>2026-03-22T08:20:50Z</time>
      </trkpt>
      <trkpt lat="44.40453" lon="4.10796">
        <ele>341.89</ele>
        <time>2026-03-22T08:20:57Z</time>
      </trkpt>
      <trkpt lat="44.40452" lon="4.10781">
        <ele>345.25</ele>
        <time>2026-03-22T08:21:12Z</time>
      </trkpt>
      <trkpt lat="44.40451" lon="4.10774">
        <ele>346.21</ele>
        <time>2026-03-22T08:21:19Z</time>
      </trkpt>
      <trkpt lat="44.40448" lon="4.10758">
        <ele>348.62</ele>
        <time>2026-03-22T08:21:34Z</time>
      </trkpt>
      <trkpt lat="44.40453" lon="4.10744">
        <ele>351.02</ele>
        <time>2026-03-22T08:21:47Z</time>
      </trkpt>
      <trkpt lat="44.40451" lon="4.10733">
        <ele>353.42</ele>
        <time>2026-03-22T08:22:02Z</time>
      </trkpt>
      <trkpt lat="44.4045" lon="4.1072">
        <ele>356.31</ele>
        <time>2026-03-22T08:22:19Z</time>
      </trkpt>
      <trkpt lat="44.40449" lon="4.10717">
        <ele>356.31</ele>
        <time>2026-03-22T08:22:44Z</time>
      </trkpt>
      <trkpt lat="44.40449" lon="4.10715">
        <ele>357.27</ele>
        <time>2026-03-22T08:23:03Z</time>
      </trkpt>
      <trkpt lat="44.4045" lon="4.10706">
        <ele>357.75</ele>
        <time>2026-03-22T08:23:19Z</time>
      </trkpt>
      <trkpt lat="44.40451" lon="4.10692">
        <ele>359.19</ele>
        <time>2026-03-22T08:23:33Z</time>
      </trkpt>
      <trkpt lat="44.40451" lon="4.10679">
        <ele>360.63</ele>
        <time>2026-03-22T08:23:47Z</time>
      </trkpt>
      <trkpt lat="44.40449" lon="4.10676">
        <ele>361.11</ele>
        <time>2026-03-22T08:24:02Z</time>
      </trkpt>
      <trkpt lat="44.4045" lon="4.10672">
        <ele>361.59</ele>
        <time>2026-03-22T08:24:29Z</time>
      </trkpt>
      <trkpt lat="44.40452" lon="4.10658">
        <ele>364</ele>
        <time>2026-03-22T08:24:43Z</time>
      </trkpt>
      <trkpt lat="44.4045" lon="4.10646">
        <ele>366.4</ele>
        <time>2026-03-22T08:24:57Z</time>
      </trkpt>
      <trkpt lat="44.4045" lon="4.10641">
        <ele>367.84</ele>
        <time>2026-03-22T08:25:04Z</time>
      </trkpt>
      <trkpt lat="44.4045" lon="4.10636">
        <ele>369.28</ele>
        <time>2026-03-22T08:25:08Z</time>
      </trkpt>
      <trkpt lat="44.40447" lon="4.10623">
        <ele>370.73</ele>
        <time>2026-03-22T08:25:23Z</time>
      </trkpt>
      <trkpt lat="44.40446" lon="4.10611">
        <ele>373.13</ele>
        <time>2026-03-22T08:25:37Z</time>
      </trkpt>
      <trkpt lat="44.40445" lon="4.10601">
        <ele>375.05</ele>
        <time>2026-03-22T08:25:49Z</time>
      </trkpt>
      <trkpt lat="44.40442" lon="4.10598">
        <ele>375.53</ele>
        <time>2026-03-22T08:26:05Z</time>
      </trkpt>
      <trkpt lat="44.40442" lon="4.10599">
        <ele>375.53</ele>
        <time>2026-03-22T08:26:32Z</time>
      </trkpt>
      <trkpt lat="44.40442" lon="4.10601">
        <ele>375.05</ele>
        <time>2026-03-22T08:26:57Z</time>
      </trkpt>
      <trkpt lat="44.40442" lon="4.10599">
        <ele>375.05</ele>
        <time>2026-03-22T08:27:11Z</time>
      </trkpt>
      <trkpt lat="44.40441" lon="4.10599">
        <ele>375.05</ele>
        <time>2026-03-22T08:27:22Z</time>
      </trkpt>
      <trkpt lat="44.40437" lon="4.10579">
        <ele>376.01</ele>
        <time>2026-03-22T08:27:36Z</time>
      </trkpt>
      <trkpt lat="44.40435" lon="4.10557">
        <ele>378.42</ele>
        <time>2026-03-22T08:27:52Z</time>
      </trkpt>
      <trkpt lat="44.40435" lon="4.10537">
        <ele>379.86</ele>
        <time>2026-03-22T08:28:07Z</time>
      </trkpt>
      <trkpt lat="44.40436" lon="4.10526">
        <ele>379.86</ele>
        <time>2026-03-22T08:28:15Z</time>
      </trkpt>
      <trkpt lat="44.40439" lon="4.10506">
        <ele>381.3</ele>
        <time>2026-03-22T08:28:31Z</time>
      </trkpt>
      <trkpt lat="44.40443" lon="4.10483">
        <ele>382.26</ele>
        <time>2026-03-22T08:28:50Z</time>
      </trkpt>
      <trkpt lat="44.40445" lon="4.10466">
        <ele>382.74</ele>
        <time>2026-03-22T08:29:04Z</time>
      </trkpt>
      <trkpt lat="44.40444" lon="4.10441">
        <ele>383.22</ele>
        <time>2026-03-22T08:29:21Z</time>
      </trkpt>
      <trkpt lat="44.40442" lon="4.10419">
        <ele>383.22</ele>
        <time>2026-03-22T08:29:39Z</time>
      </trkpt>
      <trkpt lat="44.40441" lon="4.10415">
        <ele>384.66</ele>
        <time>2026-03-22T08:29:42Z</time>
      </trkpt>
      <trkpt lat="44.40437" lon="4.10381">
        <ele>385.63</ele>
        <time>2026-03-22T08:30:07Z</time>
      </trkpt>
      <trkpt lat="44.40438" lon="4.10376">
        <ele>386.59</ele>
        <time>2026-03-22T08:30:13Z</time>
      </trkpt>
      <trkpt lat="44.40438" lon="4.10358">
        <ele>389.47</ele>
        <time>2026-03-22T08:30:28Z</time>
      </trkpt>
      <trkpt lat="44.40436" lon="4.10354">
        <ele>387.55</ele>
        <time>2026-03-22T08:30:31Z</time>
      </trkpt>
      <trkpt lat="44.40435" lon="4.10351">
        <ele>388.99</ele>
        <time>2026-03-22T08:30:33Z</time>
      </trkpt>
      <trkpt lat="44.40429" lon="4.10324">
        <ele>390.43</ele>
        <time>2026-03-22T08:30:54Z</time>
      </trkpt>
      <trkpt lat="44.40424" lon="4.10303">
        <ele>391.87</ele>
        <time>2026-03-22T08:31:11Z</time>
      </trkpt>
      <trkpt lat="44.40423" lon="4.10288">
        <ele>392.84</ele>
        <time>2026-03-22T08:31:22Z</time>
      </trkpt>
      <trkpt lat="44.40423" lon="4.10266">
        <ele>393.8</ele>
        <time>2026-03-22T08:31:39Z</time>
      </trkpt>
      <trkpt lat="44.40424" lon="4.10244">
        <ele>394.28</ele>
        <time>2026-03-22T08:31:55Z</time>
      </trkpt>
      <trkpt lat="44.40423" lon="4.10226">
        <ele>395.24</ele>
        <time>2026-03-22T08:32:11Z</time>
      </trkpt>
      <trkpt lat="44.40423" lon="4.10219">
        <ele>395.72</ele>
        <time>2026-03-22T08:32:16Z</time>
      </trkpt>
      <trkpt lat="44.40421" lon="4.10191">
        <ele>396.68</ele>
        <time>2026-03-22T08:32:35Z</time>
      </trkpt>
      <trkpt lat="44.40419" lon="4.10164">
        <ele>397.16</ele>
        <time>2026-03-22T08:32:52Z</time>
      </trkpt>
      <trkpt lat="44.40417" lon="4.1014">
        <ele>398.12</ele>
        <time>2026-03-22T08:33:10Z</time>
      </trkpt>
      <trkpt lat="44.40415" lon="4.10121">
        <ele>399.57</ele>
        <time>2026-03-22T08:33:25Z</time>
      </trkpt>
      <trkpt lat="44.4041" lon="4.10097">
        <ele>400.53</ele>
        <time>2026-03-22T08:33:43Z</time>
      </trkpt>
      <trkpt lat="44.40406" lon="4.10074">
        <ele>401.97</ele>
        <time>2026-03-22T08:34:00Z</time>
      </trkpt>
      <trkpt lat="44.40402" lon="4.10062">
        <ele>403.41</ele>
        <time>2026-03-22T08:34:10Z</time>
      </trkpt>
      <trkpt lat="44.404" lon="4.10045">
        <ele>405.33</ele>
        <time>2026-03-22T08:34:25Z</time>
      </trkpt>
      <trkpt lat="44.404" lon="4.10034">
        <ele>406.77</ele>
        <time>2026-03-22T08:34:41Z</time>
      </trkpt>
      <trkpt lat="44.40401" lon="4.10039">
        <ele>406.77</ele>
        <time>2026-03-22T08:35:04Z</time>
      </trkpt>
      <trkpt lat="44.40399" lon="4.10037">
        <ele>406.77</ele>
        <time>2026-03-22T08:35:24Z</time>
      </trkpt>
      <trkpt lat="44.40398" lon="4.10027">
        <ele>407.26</ele>
        <time>2026-03-22T08:35:49Z</time>
      </trkpt>
      <trkpt lat="44.40398" lon="4.10024">
        <ele>407.74</ele>
        <time>2026-03-22T08:35:51Z</time>
      </trkpt>
      <trkpt lat="44.40394" lon="4.10017">
        <ele>408.7</ele>
        <time>2026-03-22T08:36:06Z</time>
      </trkpt>
      <trkpt lat="44.40394" lon="4.10016">
        <ele>408.7</ele>
        <time>2026-03-22T08:36:14Z</time>
      </trkpt>
      <trkpt lat="44.40394" lon="4.09998">
        <ele>410.62</ele>
        <time>2026-03-22T08:36:30Z</time>
      </trkpt>
      <trkpt lat="44.40392" lon="4.09982">
        <ele>413.5</ele>
        <time>2026-03-22T08:36:46Z</time>
      </trkpt>
      <trkpt lat="44.40388" lon="4.0997">
        <ele>415.91</ele>
        <time>2026-03-22T08:37:01Z</time>
      </trkpt>
      <trkpt lat="44.4038" lon="4.09958">
        <ele>417.35</ele>
        <time>2026-03-22T08:37:17Z</time>
      </trkpt>
      <trkpt lat="44.40371" lon="4.0995">
        <ele>419.27</ele>
        <time>2026-03-22T08:37:31Z</time>
      </trkpt>
      <trkpt lat="44.40365" lon="4.09942">
        <ele>422.64</ele>
        <time>2026-03-22T08:37:46Z</time>
      </trkpt>
      <trkpt lat="44.40362" lon="4.09939">
        <ele>423.6</ele>
        <time>2026-03-22T08:37:51Z</time>
      </trkpt>
      <trkpt lat="44.40352" lon="4.0994">
        <ele>425.04</ele>
        <time>2026-03-22T08:38:06Z</time>
      </trkpt>
      <trkpt lat="44.40345" lon="4.09939">
        <ele>426</ele>
        <time>2026-03-22T08:38:18Z</time>
      </trkpt>
      <trkpt lat="44.40337" lon="4.09939">
        <ele>428.4</ele>
        <time>2026-03-22T08:38:30Z</time>
      </trkpt>
      <trkpt lat="44.40328" lon="4.09938">
        <ele>430.81</ele>
        <time>2026-03-22T08:38:44Z</time>
      </trkpt>
      <trkpt lat="44.40327" lon="4.09939">
        <ele>430.81</ele>
        <time>2026-03-22T08:38:46Z</time>
      </trkpt>
      <trkpt lat="44.40319" lon="4.09935">
        <ele>433.21</ele>
        <time>2026-03-22T08:38:59Z</time>
      </trkpt>
      <trkpt lat="44.40307" lon="4.09933">
        <ele>435.61</ele>
        <time>2026-03-22T08:39:14Z</time>
      </trkpt>
      <trkpt lat="44.40297" lon="4.09933">
        <ele>437.54</ele>
        <time>2026-03-22T08:39:28Z</time>
      </trkpt>
      <trkpt lat="44.40286" lon="4.09932">
        <ele>439.94</ele>
        <time>2026-03-22T08:39:43Z</time>
      </trkpt>
      <trkpt lat="44.40285" lon="4.09932">
        <ele>439.94</ele>
        <time>2026-03-22T08:39:44Z</time>
      </trkpt>
      <trkpt lat="44.40272" lon="4.09928">
        <ele>441.38</ele>
        <time>2026-03-22T08:40:00Z</time>
      </trkpt>
      <trkpt lat="44.40261" lon="4.0992">
        <ele>443.31</ele>
        <time>2026-03-22T08:40:16Z</time>
      </trkpt>
      <trkpt lat="44.40249" lon="4.09915">
        <ele>445.23</ele>
        <time>2026-03-22T08:40:31Z</time>
      </trkpt>
      <trkpt lat="44.40241" lon="4.09912">
        <ele>446.67</ele>
        <time>2026-03-22T08:40:44Z</time>
      </trkpt>
      <trkpt lat="44.40238" lon="4.0991">
        <ele>447.15</ele>
        <time>2026-03-22T08:40:59Z</time>
      </trkpt>
      <trkpt lat="44.40237" lon="4.0991">
        <ele>446.19</ele>
        <time>2026-03-22T08:41:07Z</time>
      </trkpt>
      <trkpt lat="44.40237" lon="4.0991">
        <ele>448.11</ele>
        <time>2026-03-22T08:41:09Z</time>
      </trkpt>
      <trkpt lat="44.40237" lon="4.0991">
        <ele>446.67</ele>
        <time>2026-03-22T08:41:11Z</time>
      </trkpt>
      <trkpt lat="44.40236" lon="4.0991">
        <ele>446.67</ele>
        <time>2026-03-22T08:41:31Z</time>
      </trkpt>
      <trkpt lat="44.40235" lon="4.09907">
        <ele>446.19</ele>
        <time>2026-03-22T08:41:52Z</time>
      </trkpt>
      <trkpt lat="44.40234" lon="4.09906">
        <ele>447.63</ele>
        <time>2026-03-22T08:41:54Z</time>
      </trkpt>
      <trkpt lat="44.40231" lon="4.09902">
        <ele>447.15</ele>
        <time>2026-03-22T08:42:00Z</time>
      </trkpt>
      <trkpt lat="44.4023" lon="4.09902">
        <ele>451</ele>
        <time>2026-03-22T08:42:01Z</time>
      </trkpt>
      <trkpt lat="44.40229" lon="4.09901">
        <ele>451</ele>
        <time>2026-03-22T08:42:02Z</time>
      </trkpt>
      <trkpt lat="44.40228" lon="4.099">
        <ele>449.55</ele>
        <time>2026-03-22T08:42:04Z</time>
      </trkpt>
      <trkpt lat="44.40224" lon="4.09897">
        <ele>451</ele>
        <time>2026-03-22T08:42:11Z</time>
      </trkpt>
      <trkpt lat="44.40217" lon="4.09892">
        <ele>452.92</ele>
        <time>2026-03-22T08:42:23Z</time>
      </trkpt>
      <trkpt lat="44.40215" lon="4.09892">
        <ele>452.92</ele>
        <time>2026-03-22T08:42:26Z</time>
      </trkpt>
      <trkpt lat="44.40207" lon="4.09889">
        <ele>454.36</ele>
        <time>2026-03-22T08:42:38Z</time>
      </trkpt>
      <trkpt lat="44.40199" lon="4.09883">
        <ele>457.24</ele>
        <time>2026-03-22T08:42:53Z</time>
      </trkpt>
      <trkpt lat="44.40193" lon="4.09884">
        <ele>458.69</ele>
        <time>2026-03-22T08:43:06Z</time>
      </trkpt>
      <trkpt lat="44.40189" lon="4.09885">
        <ele>459.17</ele>
        <time>2026-03-22T08:43:10Z</time>
      </trkpt>
      <trkpt lat="44.40177" lon="4.09881">
        <ele>462.05</ele>
        <time>2026-03-22T08:43:26Z</time>
      </trkpt>
      <trkpt lat="44.40166" lon="4.09879">
        <ele>463.49</ele>
        <time>2026-03-22T08:43:40Z</time>
      </trkpt>
      <trkpt lat="44.40159" lon="4.09877">
        <ele>465.9</ele>
        <time>2026-03-22T08:43:50Z</time>
      </trkpt>
      <trkpt lat="44.40141" lon="4.09872">
        <ele>466.38</ele>
        <time>2026-03-22T08:44:08Z</time>
      </trkpt>
      <trkpt lat="44.40134" lon="4.09859">
        <ele>467.82</ele>
        <time>2026-03-22T08:44:22Z</time>
      </trkpt>
      <trkpt lat="44.40121" lon="4.09858">
        <ele>468.78</ele>
        <time>2026-03-22T08:44:37Z</time>
      </trkpt>
      <trkpt lat="44.40108" lon="4.09848">
        <ele>468.78</ele>
        <time>2026-03-22T08:44:52Z</time>
      </trkpt>
      <trkpt lat="44.401" lon="4.09829">
        <ele>469.26</ele>
        <time>2026-03-22T08:45:10Z</time>
      </trkpt>
      <trkpt lat="44.40092" lon="4.09809">
        <ele>469.26</ele>
        <time>2026-03-22T08:45:27Z</time>
      </trkpt>
      <trkpt lat="44.40089" lon="4.09803">
        <ele>470.22</ele>
        <time>2026-03-22T08:45:41Z</time>
      </trkpt>
      <trkpt lat="44.40088" lon="4.09805">
        <ele>470.7</ele>
        <time>2026-03-22T08:46:06Z</time>
      </trkpt>
      <trkpt lat="44.40089" lon="4.09804">
        <ele>470.7</ele>
        <time>2026-03-22T08:46:34Z</time>
      </trkpt>
      <trkpt lat="44.40084" lon="4.09796">
        <ele>471.18</ele>
        <time>2026-03-22T08:46:49Z</time>
      </trkpt>
      <trkpt lat="44.4007" lon="4.09798">
        <ele>472.14</ele>
        <time>2026-03-22T08:47:06Z</time>
      </trkpt>
      <trkpt lat="44.40065" lon="4.098">
        <ele>472.14</ele>
        <time>2026-03-22T08:47:12Z</time>
      </trkpt>
      <trkpt lat="44.4005" lon="4.09804">
        <ele>472.63</ele>
        <time>2026-03-22T08:47:27Z</time>
      </trkpt>
      <trkpt lat="44.40041" lon="4.098">
        <ele>473.11</ele>
        <time>2026-03-22T08:47:42Z</time>
      </trkpt>
      <trkpt lat="44.40031" lon="4.09804">
        <ele>473.11</ele>
        <time>2026-03-22T08:47:56Z</time>
      </trkpt>
      <trkpt lat="44.40031" lon="4.09814">
        <ele>471.66</ele>
        <time>2026-03-22T08:48:05Z</time>
      </trkpt>
      <trkpt lat="44.40031" lon="4.09816">
        <ele>471.18</ele>
        <time>2026-03-22T08:48:07Z</time>
      </trkpt>
      <trkpt lat="44.40033" lon="4.09829">
        <ele>469.74</ele>
        <time>2026-03-22T08:48:20Z</time>
      </trkpt>
      <trkpt lat="44.40033" lon="4.09835">
        <ele>468.78</ele>
        <time>2026-03-22T08:48:36Z</time>
      </trkpt>
      <trkpt lat="44.40034" lon="4.09844">
        <ele>468.3</ele>
        <time>2026-03-22T08:49:01Z</time>
      </trkpt>
      <trkpt lat="44.40033" lon="4.0985">
        <ele>467.82</ele>
        <time>2026-03-22T08:49:13Z</time>
      </trkpt>
      <trkpt lat="44.40029" lon="4.09859">
        <ele>466.38</ele>
        <time>2026-03-22T08:49:26Z</time>
      </trkpt>
      <trkpt lat="44.40025" lon="4.09859">
        <ele>465.9</ele>
        <time>2026-03-22T08:49:57Z</time>
      </trkpt>
      <trkpt lat="44.40026" lon="4.09869">
        <ele>465.9</ele>
        <time>2026-03-22T08:50:26Z</time>
      </trkpt>
      <trkpt lat="44.40023" lon="4.09869">
        <ele>465.9</ele>
        <time>2026-03-22T08:50:51Z</time>
      </trkpt>
      <trkpt lat="44.40028" lon="4.09872">
        <ele>465.9</ele>
        <time>2026-03-22T08:51:15Z</time>
      </trkpt>
      <trkpt lat="44.4003" lon="4.09877">
        <ele>463.97</ele>
        <time>2026-03-22T08:51:30Z</time>
      </trkpt>
      <trkpt lat="44.40024" lon="4.09883">
        <ele>463.49</ele>
        <time>2026-03-22T08:51:50Z</time>
      </trkpt>
      <trkpt lat="44.4002" lon="4.09892">
        <ele>463.01</ele>
        <time>2026-03-22T08:52:08Z</time>
      </trkpt>
      <trkpt lat="44.40011" lon="4.09894">
        <ele>464.45</ele>
        <time>2026-03-22T08:52:38Z</time>
      </trkpt>
      <trkpt lat="44.40011" lon="4.09896">
        <ele>463.01</ele>
        <time>2026-03-22T08:52:54Z</time>
      </trkpt>
      <trkpt lat="44.40013" lon="4.09908">
        <ele>461.57</ele>
        <time>2026-03-22T08:53:10Z</time>
      </trkpt>
      <trkpt lat="44.40011" lon="4.09911">
        <ele>461.09</ele>
        <time>2026-03-22T08:53:13Z</time>
      </trkpt>
      <trkpt lat="44.40004" lon="4.09918">
        <ele>458.21</ele>
        <time>2026-03-22T08:53:27Z</time>
      </trkpt>
      <trkpt lat="44.39997" lon="4.09914">
        <ele>456.28</ele>
        <time>2026-03-22T08:53:39Z</time>
      </trkpt>
      <trkpt lat="44.39989" lon="4.09911">
        <ele>456.28</ele>
        <time>2026-03-22T08:53:58Z</time>
      </trkpt>
      <trkpt lat="44.39987" lon="4.09912">
        <ele>455.8</ele>
        <time>2026-03-22T08:54:25Z</time>
      </trkpt>
      <trkpt lat="44.39986" lon="4.09911">
        <ele>455.8</ele>
        <time>2026-03-22T08:54:41Z</time>
      </trkpt>
      <trkpt lat="44.39989" lon="4.09912">
        <ele>455.8</ele>
        <time>2026-03-22T08:54:57Z</time>
      </trkpt>
      <trkpt lat="44.39991" lon="4.0992">
        <ele>455.8</ele>
        <time>2026-03-22T08:55:18Z</time>
      </trkpt>
      <trkpt lat="44.39986" lon="4.09933">
        <ele>455.32</ele>
        <time>2026-03-22T08:55:33Z</time>
      </trkpt>
      <trkpt lat="44.39985" lon="4.09943">
        <ele>455.32</ele>
        <time>2026-03-22T08:55:58Z</time>
      </trkpt>
      <trkpt lat="44.39983" lon="4.09959">
        <ele>453.4</ele>
        <time>2026-03-22T08:56:11Z</time>
      </trkpt>
      <trkpt lat="44.39974" lon="4.09976">
        <ele>452.44</ele>
        <time>2026-03-22T08:56:26Z</time>
      </trkpt>
      <trkpt lat="44.39976" lon="4.09975">
        <ele>452.44</ele>
        <time>2026-03-22T08:56:43Z</time>
      </trkpt>
      <trkpt lat="44.39974" lon="4.09978">
        <ele>452.44</ele>
        <time>2026-03-22T08:57:08Z</time>
      </trkpt>
      <trkpt lat="44.3997" lon="4.09982">
        <ele>452.92</ele>
        <time>2026-03-22T08:57:34Z</time>
      </trkpt>
      <trkpt lat="44.39964" lon="4.0999">
        <ele>452.92</ele>
        <time>2026-03-22T08:58:06Z</time>
      </trkpt>
      <trkpt lat="44.39964" lon="4.09992">
        <ele>451.96</ele>
        <time>2026-03-22T08:58:08Z</time>
      </trkpt>
      <trkpt lat="44.39965" lon="4.09989">
        <ele>451.48</ele>
        <time>2026-03-22T08:58:26Z</time>
      </trkpt>
      <trkpt lat="44.39971" lon="4.09984">
        <ele>451.48</ele>
        <time>2026-03-22T08:58:42Z</time>
      </trkpt>
      <trkpt lat="44.39974" lon="4.09984">
        <ele>451.48</ele>
        <time>2026-03-22T08:59:07Z</time>
      </trkpt>
      <trkpt lat="44.39974" lon="4.09986">
        <ele>453.4</ele>
        <time>2026-03-22T08:59:25Z</time>
      </trkpt>
      <trkpt lat="44.39965" lon="4.09999">
        <ele>451</ele>
        <time>2026-03-22T08:59:41Z</time>
      </trkpt>
      <trkpt lat="44.39957" lon="4.10013">
        <ele>450.52</ele>
        <time>2026-03-22T08:59:55Z</time>
      </trkpt>
      <trkpt lat="44.39952" lon="4.10027">
        <ele>449.07</ele>
        <time>2026-03-22T09:00:10Z</time>
      </trkpt>
      <trkpt lat="44.39949" lon="4.10042">
        <ele>447.15</ele>
        <time>2026-03-22T09:00:25Z</time>
      </trkpt>
      <trkpt lat="44.39948" lon="4.10048">
        <ele>445.71</ele>
        <time>2026-03-22T09:00:45Z</time>
      </trkpt>
      <trkpt lat="44.39945" lon="4.10065">
        <ele>443.79</ele>
        <time>2026-03-22T09:00:59Z</time>
      </trkpt>
      <trkpt lat="44.39936" lon="4.10079">
        <ele>442.34</ele>
        <time>2026-03-22T09:01:15Z</time>
      </trkpt>
      <trkpt lat="44.39937" lon="4.10082">
        <ele>442.34</ele>
        <time>2026-03-22T09:01:17Z</time>
      </trkpt>
      <trkpt lat="44.39939" lon="4.101">
        <ele>439.46</ele>
        <time>2026-03-22T09:01:33Z</time>
      </trkpt>
      <trkpt lat="44.39936" lon="4.10113">
        <ele>438.5</ele>
        <time>2026-03-22T09:01:43Z</time>
      </trkpt>
      <trkpt lat="44.39925" lon="4.10125">
        <ele>437.06</ele>
        <time>2026-03-22T09:01:57Z</time>
      </trkpt>
      <trkpt lat="44.39915" lon="4.1014">
        <ele>435.13</ele>
        <time>2026-03-22T09:02:11Z</time>
      </trkpt>
      <trkpt lat="44.39905" lon="4.10148">
        <ele>433.69</ele>
        <time>2026-03-22T09:02:24Z</time>
      </trkpt>
      <trkpt lat="44.39899" lon="4.1016">
        <ele>432.73</ele>
        <time>2026-03-22T09:02:40Z</time>
      </trkpt>
      <trkpt lat="44.39898" lon="4.10177">
        <ele>431.29</ele>
        <time>2026-03-22T09:02:56Z</time>
      </trkpt>
      <trkpt lat="44.39897" lon="4.10188">
        <ele>429.85</ele>
        <time>2026-03-22T09:03:08Z</time>
      </trkpt>
      <trkpt lat="44.39898" lon="4.10204">
        <ele>428.89</ele>
        <time>2026-03-22T09:03:22Z</time>
      </trkpt>
      <trkpt lat="44.399" lon="4.10218">
        <ele>426.96</ele>
        <time>2026-03-22T09:03:36Z</time>
      </trkpt>
      <trkpt lat="44.39902" lon="4.10233">
        <ele>425.04</ele>
        <time>2026-03-22T09:03:50Z</time>
      </trkpt>
      <trkpt lat="44.39904" lon="4.10249">
        <ele>424.08</ele>
        <time>2026-03-22T09:04:06Z</time>
      </trkpt>
      <trkpt lat="44.39902" lon="4.10266">
        <ele>422.16</ele>
        <time>2026-03-22T09:04:21Z</time>
      </trkpt>
      <trkpt lat="44.39905" lon="4.1028">
        <ele>419.75</ele>
        <time>2026-03-22T09:04:37Z</time>
      </trkpt>
      <trkpt lat="44.39906" lon="4.10299">
        <ele>418.79</ele>
        <time>2026-03-22T09:04:53Z</time>
      </trkpt>
      <trkpt lat="44.39909" lon="4.10316">
        <ele>416.39</ele>
        <time>2026-03-22T09:05:07Z</time>
      </trkpt>
      <trkpt lat="44.39908" lon="4.1033">
        <ele>413.98</ele>
        <time>2026-03-22T09:05:21Z</time>
      </trkpt>
      <trkpt lat="44.3991" lon="4.10339">
        <ele>412.06</ele>
        <time>2026-03-22T09:05:34Z</time>
      </trkpt>
      <trkpt lat="44.39907" lon="4.10341">
        <ele>412.06</ele>
        <time>2026-03-22T09:05:48Z</time>
      </trkpt>
      <trkpt lat="44.39911" lon="4.1035">
        <ele>409.18</ele>
        <time>2026-03-22T09:06:04Z</time>
      </trkpt>
      <trkpt lat="44.39906" lon="4.10362">
        <ele>407.26</ele>
        <time>2026-03-22T09:06:19Z</time>
      </trkpt>
      <trkpt lat="44.39903" lon="4.10368">
        <ele>406.29</ele>
        <time>2026-03-22T09:06:36Z</time>
      </trkpt>
      <trkpt lat="44.39904" lon="4.10367">
        <ele>405.81</ele>
        <time>2026-03-22T09:06:58Z</time>
      </trkpt>
      <trkpt lat="44.39904" lon="4.10371">
        <ele>405.81</ele>
        <time>2026-03-22T09:07:16Z</time>
      </trkpt>
      <trkpt lat="44.39903" lon="4.10377">
        <ele>405.81</ele>
        <time>2026-03-22T09:07:22Z</time>
      </trkpt>
      <trkpt lat="44.399" lon="4.10389">
        <ele>402.45</ele>
        <time>2026-03-22T09:07:35Z</time>
      </trkpt>
      <trkpt lat="44.39897" lon="4.10397">
        <ele>401.97</ele>
        <time>2026-03-22T09:07:52Z</time>
      </trkpt>
      <trkpt lat="44.399" lon="4.10408">
        <ele>399.57</ele>
        <time>2026-03-22T09:08:06Z</time>
      </trkpt>
      <trkpt lat="44.399" lon="4.10409">
        <ele>403.89</ele>
        <time>2026-03-22T09:08:07Z</time>
      </trkpt>
      <trkpt lat="44.39899" lon="4.1041">
        <ele>402.45</ele>
        <time>2026-03-22T09:08:08Z</time>
      </trkpt>
      <trkpt lat="44.39898" lon="4.10413">
        <ele>401.49</ele>
        <time>2026-03-22T09:08:10Z</time>
      </trkpt>
      <trkpt lat="44.3989" lon="4.10431">
        <ele>400.05</ele>
        <time>2026-03-22T09:08:26Z</time>
      </trkpt>
      <trkpt lat="44.39888" lon="4.10445">
        <ele>398.6</ele>
        <time>2026-03-22T09:08:38Z</time>
      </trkpt>
      <trkpt lat="44.39888" lon="4.10467">
        <ele>396.2</ele>
        <time>2026-03-22T09:08:55Z</time>
      </trkpt>
      <trkpt lat="44.39887" lon="4.10481">
        <ele>394.76</ele>
        <time>2026-03-22T09:09:12Z</time>
      </trkpt>
      <trkpt lat="44.3989" lon="4.10488">
        <ele>394.28</ele>
        <time>2026-03-22T09:09:28Z</time>
      </trkpt>
      <trkpt lat="44.39889" lon="4.10506">
        <ele>391.39</ele>
        <time>2026-03-22T09:09:45Z</time>
      </trkpt>
      <trkpt lat="44.39891" lon="4.10518">
        <ele>390.43</ele>
        <time>2026-03-22T09:10:02Z</time>
      </trkpt>
      <trkpt lat="44.39891" lon="4.1052">
        <ele>389.47</ele>
        <time>2026-03-22T09:10:18Z</time>
      </trkpt>
      <trkpt lat="44.39888" lon="4.10523">
        <ele>389.47</ele>
        <time>2026-03-22T09:10:47Z</time>
      </trkpt>
      <trkpt lat="44.39891" lon="4.10524">
        <ele>389.47</ele>
        <time>2026-03-22T09:11:10Z</time>
      </trkpt>
      <trkpt lat="44.39892" lon="4.10526">
        <ele>388.99</ele>
        <time>2026-03-22T09:11:28Z</time>
      </trkpt>
      <trkpt lat="44.39892" lon="4.10527">
        <ele>388.99</ele>
        <time>2026-03-22T09:11:30Z</time>
      </trkpt>
      <trkpt lat="44.39892" lon="4.10529">
        <ele>388.03</ele>
        <time>2026-03-22T09:11:43Z</time>
      </trkpt>
      <trkpt lat="44.39893" lon="4.10533">
        <ele>387.55</ele>
        <time>2026-03-22T09:11:48Z</time>
      </trkpt>
      <trkpt lat="44.39892" lon="4.10538">
        <ele>387.07</ele>
        <time>2026-03-22T09:12:00Z</time>
      </trkpt>
      <trkpt lat="44.39894" lon="4.10542">
        <ele>386.59</ele>
        <time>2026-03-22T09:12:04Z</time>
      </trkpt>
      <trkpt lat="44.39904" lon="4.10568">
        <ele>384.66</ele>
        <time>2026-03-22T09:12:23Z</time>
      </trkpt>
      <trkpt lat="44.39908" lon="4.10579">
        <ele>383.22</ele>
        <time>2026-03-22T09:12:33Z</time>
      </trkpt>
      <trkpt lat="44.39908" lon="4.10584">
        <ele>382.74</ele>
        <time>2026-03-22T09:12:37Z</time>
      </trkpt>
      <trkpt lat="44.39911" lon="4.1059">
        <ele>382.74</ele>
        <time>2026-03-22T09:12:42Z</time>
      </trkpt>
      <trkpt lat="44.39914" lon="4.10595">
        <ele>382.74</ele>
        <time>2026-03-22T09:12:46Z</time>
      </trkpt>
      <trkpt lat="44.3992" lon="4.10613">
        <ele>380.82</ele>
        <time>2026-03-22T09:13:01Z</time>
      </trkpt>
      <trkpt lat="44.39926" lon="4.10631">
        <ele>379.38</ele>
        <time>2026-03-22T09:13:16Z</time>
      </trkpt>
      <trkpt lat="44.39928" lon="4.10645">
        <ele>376.97</ele>
        <time>2026-03-22T09:13:28Z</time>
      </trkpt>
      <trkpt lat="44.39933" lon="4.10663">
        <ele>376.01</ele>
        <time>2026-03-22T09:13:43Z</time>
      </trkpt>
      <trkpt lat="44.39937" lon="4.1068">
        <ele>375.05</ele>
        <time>2026-03-22T09:13:55Z</time>
      </trkpt>
      <trkpt lat="44.39941" lon="4.10698">
        <ele>374.09</ele>
        <time>2026-03-22T09:14:08Z</time>
      </trkpt>
      <trkpt lat="44.39942" lon="4.10713">
        <ele>371.21</ele>
        <time>2026-03-22T09:14:22Z</time>
      </trkpt>
      <trkpt lat="44.39942" lon="4.10729">
        <ele>368.32</ele>
        <time>2026-03-22T09:14:35Z</time>
      </trkpt>
      <trkpt lat="44.39943" lon="4.10739">
        <ele>366.88</ele>
        <time>2026-03-22T09:14:47Z</time>
      </trkpt>
      <trkpt lat="44.39941" lon="4.10752">
        <ele>364.96</ele>
        <time>2026-03-22T09:14:58Z</time>
      </trkpt>
      <trkpt lat="44.39943" lon="4.10764">
        <ele>364</ele>
        <time>2026-03-22T09:15:07Z</time>
      </trkpt>
      <trkpt lat="44.39943" lon="4.10785">
        <ele>362.55</ele>
        <time>2026-03-22T09:15:22Z</time>
      </trkpt>
      <trkpt lat="44.39944" lon="4.10807">
        <ele>361.11</ele>
        <time>2026-03-22T09:15:38Z</time>
      </trkpt>
      <trkpt lat="44.39945" lon="4.10822">
        <ele>360.15</ele>
        <time>2026-03-22T09:15:54Z</time>
      </trkpt>
      <trkpt lat="44.39942" lon="4.10821">
        <ele>359.67</ele>
        <time>2026-03-22T09:16:21Z</time>
      </trkpt>
      <trkpt lat="44.39943" lon="4.10835">
        <ele>359.19</ele>
        <time>2026-03-22T09:16:42Z</time>
      </trkpt>
      <trkpt lat="44.39942" lon="4.10851">
        <ele>358.71</ele>
        <time>2026-03-22T09:16:52Z</time>
      </trkpt>
      <trkpt lat="44.39939" lon="4.10876">
        <ele>357.27</ele>
        <time>2026-03-22T09:17:11Z</time>
      </trkpt>
      <trkpt lat="44.39937" lon="4.10895">
        <ele>356.31</ele>
        <time>2026-03-22T09:17:25Z</time>
      </trkpt>
      <trkpt lat="44.39937" lon="4.10897">
        <ele>356.31</ele>
        <time>2026-03-22T09:17:26Z</time>
      </trkpt>
      <trkpt lat="44.39934" lon="4.10905">
        <ele>356.31</ele>
        <time>2026-03-22T09:17:30Z</time>
      </trkpt>
      <trkpt lat="44.39927" lon="4.10915">
        <ele>355.34</ele>
        <time>2026-03-22T09:17:41Z</time>
      </trkpt>
      <trkpt lat="44.39922" lon="4.10937">
        <ele>353.9</ele>
        <time>2026-03-22T09:17:59Z</time>
      </trkpt>
      <trkpt lat="44.39918" lon="4.10943">
        <ele>353.9</ele>
        <time>2026-03-22T09:18:13Z</time>
      </trkpt>
      <trkpt lat="44.39914" lon="4.1096">
        <ele>352.46</ele>
        <time>2026-03-22T09:18:27Z</time>
      </trkpt>
      <trkpt lat="44.39909" lon="4.10977">
        <ele>351.02</ele>
        <time>2026-03-22T09:18:42Z</time>
      </trkpt>
      <trkpt lat="44.39907" lon="4.10991">
        <ele>350.06</ele>
        <time>2026-03-22T09:18:53Z</time>
      </trkpt>
      <trkpt lat="44.39905" lon="4.10996">
        <ele>350.06</ele>
        <time>2026-03-22T09:18:57Z</time>
      </trkpt>
      <trkpt lat="44.399" lon="4.11013">
        <ele>349.1</ele>
        <time>2026-03-22T09:19:13Z</time>
      </trkpt>
      <trkpt lat="44.39895" lon="4.11037">
        <ele>347.65</ele>
        <time>2026-03-22T09:19:30Z</time>
      </trkpt>
      <trkpt lat="44.39892" lon="4.11045">
        <ele>347.17</ele>
        <time>2026-03-22T09:19:44Z</time>
      </trkpt>
      <trkpt lat="44.39891" lon="4.11045">
        <ele>347.17</ele>
        <time>2026-03-22T09:20:08Z</time>
      </trkpt>
      <trkpt lat="44.3989" lon="4.11046">
        <ele>347.17</ele>
        <time>2026-03-22T09:20:32Z</time>
      </trkpt>
      <trkpt lat="44.39889" lon="4.11046">
        <ele>347.17</ele>
        <time>2026-03-22T09:21:11Z</time>
      </trkpt>
      <trkpt lat="44.39889" lon="4.11046">
        <ele>346.69</ele>
        <time>2026-03-22T09:21:13Z</time>
      </trkpt>
      <trkpt lat="44.39889" lon="4.11049">
        <ele>342.85</ele>
        <time>2026-03-22T09:21:15Z</time>
      </trkpt>
      <trkpt lat="44.39889" lon="4.11051">
        <ele>350.06</ele>
        <time>2026-03-22T09:21:16Z</time>
      </trkpt>
      <trkpt lat="44.39889" lon="4.11052">
        <ele>347.65</ele>
        <time>2026-03-22T09:21:17Z</time>
      </trkpt>
      <trkpt lat="44.3989" lon="4.11067">
        <ele>340.92</ele>
        <time>2026-03-22T09:21:30Z</time>
      </trkpt>
      <trkpt lat="44.39889" lon="4.11068">
        <ele>350.06</ele>
        <time>2026-03-22T09:21:31Z</time>
      </trkpt>
      <trkpt lat="44.39889" lon="4.1107">
        <ele>346.69</ele>
        <time>2026-03-22T09:21:32Z</time>
      </trkpt>
      <trkpt lat="44.39891" lon="4.11082">
        <ele>345.25</ele>
        <time>2026-03-22T09:21:42Z</time>
      </trkpt>
      <trkpt lat="44.39888" lon="4.11096">
        <ele>341.89</ele>
        <time>2026-03-22T09:21:57Z</time>
      </trkpt>
      <trkpt lat="44.39884" lon="4.11105">
        <ele>339.48</ele>
        <time>2026-03-22T09:22:11Z</time>
      </trkpt>
      <trkpt lat="44.39885" lon="4.11107">
        <ele>335.64</ele>
        <time>2026-03-22T09:22:15Z</time>
      </trkpt>
      <trkpt lat="44.39885" lon="4.11108">
        <ele>339.96</ele>
        <time>2026-03-22T09:22:16Z</time>
      </trkpt>
      <trkpt lat="44.39886" lon="4.1111">
        <ele>338.04</ele>
        <time>2026-03-22T09:22:19Z</time>
      </trkpt>
      <trkpt lat="44.39886" lon="4.11119">
        <ele>334.2</ele>
        <time>2026-03-22T09:22:31Z</time>
      </trkpt>
      <trkpt lat="44.39884" lon="4.11127">
        <ele>331.31</ele>
        <time>2026-03-22T09:22:43Z</time>
      </trkpt>
      <trkpt lat="44.39884" lon="4.11128">
        <ele>331.31</ele>
        <time>2026-03-22T09:22:44Z</time>
      </trkpt>
      <trkpt lat="44.39888" lon="4.11137">
        <ele>329.39</ele>
        <time>2026-03-22T09:22:58Z</time>
      </trkpt>
      <trkpt lat="44.39889" lon="4.11147">
        <ele>326.99</ele>
        <time>2026-03-22T09:23:11Z</time>
      </trkpt>
      <trkpt lat="44.39889" lon="4.11155">
        <ele>324.58</ele>
        <time>2026-03-22T09:23:22Z</time>
      </trkpt>
      <trkpt lat="44.39891" lon="4.11156">
        <ele>322.66</ele>
        <time>2026-03-22T09:23:33Z</time>
      </trkpt>
      <trkpt lat="44.39893" lon="4.11166">
        <ele>319.78</ele>
        <time>2026-03-22T09:23:48Z</time>
      </trkpt>
      <trkpt lat="44.39888" lon="4.11169">
        <ele>318.81</ele>
        <time>2026-03-22T09:24:03Z</time>
      </trkpt>
      <trkpt lat="44.39889" lon="4.11168">
        <ele>318.81</ele>
        <time>2026-03-22T09:24:26Z</time>
      </trkpt>
      <trkpt lat="44.39894" lon="4.11169">
        <ele>318.33</ele>
        <time>2026-03-22T09:24:48Z</time>
      </trkpt>
      <trkpt lat="44.39896" lon="4.11169">
        <ele>316.89</ele>
        <time>2026-03-22T09:24:51Z</time>
      </trkpt>
      <trkpt lat="44.39902" lon="4.11172">
        <ele>314.01</ele>
        <time>2026-03-22T09:25:05Z</time>
      </trkpt>
      <trkpt lat="44.39912" lon="4.11178">
        <ele>310.64</ele>
        <time>2026-03-22T09:25:18Z</time>
      </trkpt>
      <trkpt lat="44.39921" lon="4.11191">
        <ele>308.24</ele>
        <time>2026-03-22T09:25:32Z</time>
      </trkpt>
      <trkpt lat="44.3993" lon="4.11208">
        <ele>305.36</ele>
        <time>2026-03-22T09:25:50Z</time>
      </trkpt>
      <trkpt lat="44.39944" lon="4.11223">
        <ele>303.43</ele>
        <time>2026-03-22T09:26:09Z</time>
      </trkpt>
      <trkpt lat="44.39955" lon="4.11237">
        <ele>302.95</ele>
        <time>2026-03-22T09:26:24Z</time>
      </trkpt>
      <trkpt lat="44.39955" lon="4.11239">
        <ele>302.95</ele>
        <time>2026-03-22T09:26:26Z</time>
      </trkpt>
      <trkpt lat="44.39957" lon="4.11264">
        <ele>299.59</ele>
        <time>2026-03-22T09:26:42Z</time>
      </trkpt>
      <trkpt lat="44.39957" lon="4.11282">
        <ele>297.67</ele>
        <time>2026-03-22T09:26:57Z</time>
      </trkpt>
      <trkpt lat="44.39958" lon="4.11297">
        <ele>294.3</ele>
        <time>2026-03-22T09:27:13Z</time>
      </trkpt>
      <trkpt lat="44.39961" lon="4.11306">
        <ele>290.94</ele>
        <time>2026-03-22T09:27:26Z</time>
      </trkpt>
      <trkpt lat="44.39961" lon="4.11319">
        <ele>287.57</ele>
        <time>2026-03-22T09:27:42Z</time>
      </trkpt>
      <trkpt lat="44.39965" lon="4.11331">
        <ele>285.17</ele>
        <time>2026-03-22T09:27:59Z</time>
      </trkpt>
      <trkpt lat="44.39964" lon="4.11345">
        <ele>282.77</ele>
        <time>2026-03-22T09:28:13Z</time>
      </trkpt>
      <trkpt lat="44.3997" lon="4.11357">
        <ele>280.84</ele>
        <time>2026-03-22T09:28:31Z</time>
      </trkpt>
      <trkpt lat="44.39977" lon="4.11367">
        <ele>278.44</ele>
        <time>2026-03-22T09:28:45Z</time>
      </trkpt>
      <trkpt lat="44.39979" lon="4.11375">
        <ele>277.96</ele>
        <time>2026-03-22T09:29:00Z</time>
      </trkpt>
      <trkpt lat="44.39977" lon="4.11374">
        <ele>278.92</ele>
        <time>2026-03-22T09:29:08Z</time>
      </trkpt>
      <trkpt lat="44.39967" lon="4.11376">
        <ele>279.4</ele>
        <time>2026-03-22T09:29:17Z</time>
      </trkpt>
      <trkpt lat="44.39959" lon="4.11381">
        <ele>279.88</ele>
        <time>2026-03-22T09:29:33Z</time>
      </trkpt>
      <trkpt lat="44.39944" lon="4.11382">
        <ele>280.84</ele>
        <time>2026-03-22T09:29:52Z</time>
      </trkpt>
      <trkpt lat="44.39938" lon="4.11388">
        <ele>281.32</ele>
        <time>2026-03-22T09:30:08Z</time>
      </trkpt>
      <trkpt lat="44.39941" lon="4.11401">
        <ele>282.77</ele>
        <time>2026-03-22T09:30:21Z</time>
      </trkpt>
      <trkpt lat="44.39944" lon="4.11411">
        <ele>283.73</ele>
        <time>2026-03-22T09:30:35Z</time>
      </trkpt>
      <trkpt lat="44.39944" lon="4.11424">
        <ele>284.21</ele>
        <time>2026-03-22T09:30:50Z</time>
      </trkpt>
      <trkpt lat="44.39945" lon="4.1143">
        <ele>284.69</ele>
        <time>2026-03-22T09:30:56Z</time>
      </trkpt>
      <trkpt lat="44.39937" lon="4.11439">
        <ele>283.73</ele>
        <time>2026-03-22T09:31:12Z</time>
      </trkpt>
      <trkpt lat="44.39937" lon="4.11439">
        <ele>283.73</ele>
        <time>2026-03-22T09:31:13Z</time>
      </trkpt>
      <trkpt lat="44.39931" lon="4.11437">
        <ele>283.73</ele>
        <time>2026-03-22T09:31:47Z</time>
      </trkpt>
      <trkpt lat="44.3993" lon="4.11436">
        <ele>283.73</ele>
        <time>2026-03-22T09:32:20Z</time>
      </trkpt>
      <trkpt lat="44.3993" lon="4.11437">
        <ele>283.73</ele>
        <time>2026-03-22T09:32:54Z</time>
      </trkpt>
      <trkpt lat="44.39929" lon="4.11436">
        <ele>283.73</ele>
        <time>2026-03-22T09:33:27Z</time>
      </trkpt>
      <trkpt lat="44.39927" lon="4.11437">
        <ele>284.21</ele>
        <time>2026-03-22T09:34:02Z</time>
      </trkpt>
      <trkpt lat="44.39929" lon="4.11442">
        <ele>284.21</ele>
        <time>2026-03-22T09:34:33Z</time>
      </trkpt>
      <trkpt lat="44.39927" lon="4.11436">
        <ele>284.21</ele>
        <time>2026-03-22T09:35:06Z</time>
      </trkpt>
      <trkpt lat="44.39929" lon="4.11438">
        <ele>284.21</ele>
        <time>2026-03-22T09:35:40Z</time>
      </trkpt>
      <trkpt lat="44.39924" lon="4.11437">
        <ele>284.69</ele>
        <time>2026-03-22T09:36:14Z</time>
      </trkpt>
      <trkpt lat="44.39926" lon="4.11437">
        <ele>284.69</ele>
        <time>2026-03-22T09:36:45Z</time>
      </trkpt>
      <trkpt lat="44.39928" lon="4.11438">
        <ele>284.69</ele>
        <time>2026-03-22T09:37:25Z</time>
      </trkpt>
      <trkpt lat="44.39929" lon="4.11438">
        <ele>284.69</ele>
        <time>2026-03-22T09:38:05Z</time>
      </trkpt>
      <trkpt lat="44.3993" lon="4.11436">
        <ele>286.13</ele>
        <time>2026-03-22T09:38:39Z</time>
      </trkpt>
      <trkpt lat="44.39929" lon="4.11437">
        <ele>286.13</ele>
        <time>2026-03-22T09:39:15Z</time>
      </trkpt>
      <trkpt lat="44.39927" lon="4.11437">
        <ele>286.13</ele>
        <time>2026-03-22T09:39:44Z</time>
      </trkpt>
      <trkpt lat="44.39926" lon="4.11437">
        <ele>286.13</ele>
        <time>2026-03-22T09:40:19Z</time>
      </trkpt>
      <trkpt lat="44.39928" lon="4.1144">
        <ele>286.13</ele>
        <time>2026-03-22T09:40:51Z</time>
      </trkpt>
      <trkpt lat="44.39929" lon="4.11439">
        <ele>286.13</ele>
        <time>2026-03-22T09:41:22Z</time>
      </trkpt>
      <trkpt lat="44.39928" lon="4.11439">
        <ele>286.13</ele>
        <time>2026-03-22T09:41:50Z</time>
      </trkpt>
      <trkpt lat="44.39928" lon="4.11442">
        <ele>286.61</ele>
        <time>2026-03-22T09:42:25Z</time>
      </trkpt>
      <trkpt lat="44.39928" lon="4.1144">
        <ele>286.61</ele>
        <time>2026-03-22T09:42:58Z</time>
      </trkpt>
      <trkpt lat="44.39929" lon="4.11442">
        <ele>286.61</ele>
        <time>2026-03-22T09:43:38Z</time>
      </trkpt>
      <trkpt lat="44.39929" lon="4.11439">
        <ele>287.09</ele>
        <time>2026-03-22T09:44:15Z</time>
      </trkpt>
      <trkpt lat="44.3993" lon="4.1144">
        <ele>287.09</ele>
        <time>2026-03-22T09:44:40Z</time>
      </trkpt>
      <trkpt lat="44.3993" lon="4.11437">
        <ele>287.57</ele>
        <time>2026-03-22T09:44:44Z</time>
      </trkpt>
      <trkpt lat="44.39934" lon="4.11419">
        <ele>287.57</ele>
        <time>2026-03-22T09:45:02Z</time>
      </trkpt>
      <trkpt lat="44.39934" lon="4.11414">
        <ele>286.13</ele>
        <time>2026-03-22T09:45:08Z</time>
      </trkpt>
      <trkpt lat="44.39936" lon="4.11406">
        <ele>286.61</ele>
        <time>2026-03-22T09:45:13Z</time>
      </trkpt>
      <trkpt lat="44.39938" lon="4.11402">
        <ele>286.61</ele>
        <time>2026-03-22T09:45:15Z</time>
      </trkpt>
      <trkpt lat="44.39939" lon="4.11398">
        <ele>285.17</ele>
        <time>2026-03-22T09:45:17Z</time>
      </trkpt>
      <trkpt lat="44.39947" lon="4.11382">
        <ele>283.73</ele>
        <time>2026-03-22T09:45:34Z</time>
      </trkpt>
      <trkpt lat="44.39967" lon="4.11373">
        <ele>281.8</ele>
        <time>2026-03-22T09:45:54Z</time>
      </trkpt>
      <trkpt lat="44.39979" lon="4.11368">
        <ele>281.32</ele>
        <time>2026-03-22T09:46:03Z</time>
      </trkpt>
      <trkpt lat="44.3999" lon="4.11369">
        <ele>280.36</ele>
        <time>2026-03-22T09:46:17Z</time>
      </trkpt>
      <trkpt lat="44.4001" lon="4.11378">
        <ele>279.88</ele>
        <time>2026-03-22T09:46:34Z</time>
      </trkpt>
      <trkpt lat="44.40029" lon="4.1138">
        <ele>279.4</ele>
        <time>2026-03-22T09:46:48Z</time>
      </trkpt>
      <trkpt lat="44.40049" lon="4.11388">
        <ele>277</ele>
        <time>2026-03-22T09:47:06Z</time>
      </trkpt>
      <trkpt lat="44.40065" lon="4.11381">
        <ele>276.04</ele>
        <time>2026-03-22T09:47:24Z</time>
      </trkpt>
      <trkpt lat="44.40069" lon="4.11373">
        <ele>275.56</ele>
        <time>2026-03-22T09:47:31Z</time>
      </trkpt>
      <trkpt lat="44.40083" lon="4.11345">
        <ele>275.07</ele>
        <time>2026-03-22T09:47:55Z</time>
      </trkpt>
      <trkpt lat="44.40095" lon="4.1132">
        <ele>274.11</ele>
        <time>2026-03-22T09:48:14Z</time>
      </trkpt>
      <trkpt lat="44.40106" lon="4.11301">
        <ele>273.63</ele>
        <time>2026-03-22T09:48:30Z</time>
      </trkpt>
      <trkpt lat="44.40125" lon="4.11277">
        <ele>272.19</ele>
        <time>2026-03-22T09:48:51Z</time>
      </trkpt>
      <trkpt lat="44.40141" lon="4.11252">
        <ele>271.23</ele>
        <time>2026-03-22T09:49:10Z</time>
      </trkpt>
      <trkpt lat="44.4016" lon="4.11224">
        <ele>269.79</ele>
        <time>2026-03-22T09:49:34Z</time>
      </trkpt>
      <trkpt lat="44.40172" lon="4.11195">
        <ele>268.83</ele>
        <time>2026-03-22T09:49:55Z</time>
      </trkpt>
      <trkpt lat="44.40187" lon="4.11163">
        <ele>268.35</ele>
        <time>2026-03-22T09:50:19Z</time>
      </trkpt>
      <trkpt lat="44.402" lon="4.11136">
        <ele>268.35</ele>
        <time>2026-03-22T09:50:39Z</time>
      </trkpt>
      <trkpt lat="44.4021" lon="4.11108">
        <ele>268.83</ele>
        <time>2026-03-22T09:50:59Z</time>
      </trkpt>
      <trkpt lat="44.40216" lon="4.11069">
        <ele>268.83</ele>
        <time>2026-03-22T09:51:24Z</time>
      </trkpt>
      <trkpt lat="44.4022" lon="4.11037">
        <ele>268.83</ele>
        <time>2026-03-22T09:51:44Z</time>
      </trkpt>
      <trkpt lat="44.40224" lon="4.11005">
        <ele>268.83</ele>
        <time>2026-03-22T09:52:05Z</time>
      </trkpt>
      <trkpt lat="44.40228" lon="4.1098">
        <ele>268.83</ele>
        <time>2026-03-22T09:52:23Z</time>
      </trkpt>
      <trkpt lat="44.40234" lon="4.10947">
        <ele>268.83</ele>
        <time>2026-03-22T09:52:43Z</time>
      </trkpt>
      <trkpt lat="44.40252" lon="4.10926">
        <ele>268.35</ele>
        <time>2026-03-22T09:53:03Z</time>
      </trkpt>
      <trkpt lat="44.40257" lon="4.10926">
        <ele>268.35</ele>
        <time>2026-03-22T09:53:20Z</time>
      </trkpt>
      <trkpt lat="44.40269" lon="4.10924">
        <ele>268.35</ele>
        <time>2026-03-22T09:53:30Z</time>
      </trkpt>
      <trkpt lat="44.40273" lon="4.10917">
        <ele>268.35</ele>
        <time>2026-03-22T09:53:36Z</time>
      </trkpt>
      <trkpt lat="44.40274" lon="4.10914">
        <ele>269.79</ele>
        <time>2026-03-22T09:53:38Z</time>
      </trkpt>
      <trkpt lat="44.40274" lon="4.10893">
        <ele>272.19</ele>
        <time>2026-03-22T09:53:54Z</time>
      </trkpt>
      <trkpt lat="44.40273" lon="4.10887">
        <ele>270.75</ele>
        <time>2026-03-22T09:53:58Z</time>
      </trkpt>
      <trkpt lat="44.40272" lon="4.10884">
        <ele>271.71</ele>
        <time>2026-03-22T09:54:00Z</time>
      </trkpt>
      <trkpt lat="44.40272" lon="4.10883">
        <ele>271.71</ele>
        <time>2026-03-22T09:54:01Z</time>
      </trkpt>
      <trkpt lat="44.40271" lon="4.10863">
        <ele>271.23</ele>
        <time>2026-03-22T09:54:14Z</time>
      </trkpt>
      <trkpt lat="44.40272" lon="4.1084">
        <ele>272.67</ele>
        <time>2026-03-22T09:54:29Z</time>
      </trkpt>
      <trkpt lat="44.4027" lon="4.10822">
        <ele>274.59</ele>
        <time>2026-03-22T09:54:41Z</time>
      </trkpt>
      <trkpt lat="44.40271" lon="4.10801">
        <ele>274.11</ele>
        <time>2026-03-22T09:54:55Z</time>
      </trkpt>
      <trkpt lat="44.40273" lon="4.10789">
        <ele>275.07</ele>
        <time>2026-03-22T09:55:03Z</time>
      </trkpt>
      <trkpt lat="44.40274" lon="4.10782">
        <ele>276.52</ele>
        <time>2026-03-22T09:55:08Z</time>
      </trkpt>
      <trkpt lat="44.40276" lon="4.10778">
        <ele>277.96</ele>
        <time>2026-03-22T09:55:11Z</time>
      </trkpt>
      <trkpt lat="44.40276" lon="4.10773">
        <ele>277.48</ele>
        <time>2026-03-22T09:55:15Z</time>
      </trkpt>
      <trkpt lat="44.40273" lon="4.10758">
        <ele>277</ele>
        <time>2026-03-22T09:55:27Z</time>
      </trkpt>
      <trkpt lat="44.4027" lon="4.10743">
        <ele>277.48</ele>
        <time>2026-03-22T09:55:36Z</time>
      </trkpt>
      <trkpt lat="44.4027" lon="4.10715">
        <ele>278.92</ele>
        <time>2026-03-22T09:55:53Z</time>
      </trkpt>
      <trkpt lat="44.40267" lon="4.10706">
        <ele>278.92</ele>
        <time>2026-03-22T09:56:04Z</time>
      </trkpt>
      <trkpt lat="44.40269" lon="4.107">
        <ele>276.52</ele>
        <time>2026-03-22T09:56:17Z</time>
      </trkpt>
      <trkpt lat="44.40269" lon="4.10698">
        <ele>279.88</ele>
        <time>2026-03-22T09:56:19Z</time>
      </trkpt>
      <trkpt lat="44.40269" lon="4.10695">
        <ele>278.44</ele>
        <time>2026-03-22T09:56:21Z</time>
      </trkpt>
      <trkpt lat="44.40266" lon="4.10673">
        <ele>277.96</ele>
        <time>2026-03-22T09:56:36Z</time>
      </trkpt>
      <trkpt lat="44.40265" lon="4.1067">
        <ele>279.4</ele>
        <time>2026-03-22T09:56:45Z</time>
      </trkpt>
      <trkpt lat="44.40265" lon="4.10667">
        <ele>275.56</ele>
        <time>2026-03-22T09:56:52Z</time>
      </trkpt>
      <trkpt lat="44.40265" lon="4.10665">
        <ele>281.32</ele>
        <time>2026-03-22T09:56:53Z</time>
      </trkpt>
      <trkpt lat="44.40266" lon="4.10661">
        <ele>279.4</ele>
        <time>2026-03-22T09:56:56Z</time>
      </trkpt>
      <trkpt lat="44.4027" lon="4.10645">
        <ele>281.32</ele>
        <time>2026-03-22T09:57:09Z</time>
      </trkpt>
      <trkpt lat="44.40271" lon="4.10642">
        <ele>282.77</ele>
        <time>2026-03-22T09:57:22Z</time>
      </trkpt>
      <trkpt lat="44.40272" lon="4.1064">
        <ele>280.84</ele>
        <time>2026-03-22T09:57:26Z</time>
      </trkpt>
      <trkpt lat="44.40273" lon="4.10638">
        <ele>282.77</ele>
        <time>2026-03-22T09:57:28Z</time>
      </trkpt>
      <trkpt lat="44.40274" lon="4.10626">
        <ele>283.25</ele>
        <time>2026-03-22T09:57:38Z</time>
      </trkpt>
      <trkpt lat="44.40273" lon="4.10623">
        <ele>284.21</ele>
        <time>2026-03-22T09:57:51Z</time>
      </trkpt>
      <trkpt lat="44.40273" lon="4.10622">
        <ele>284.21</ele>
        <time>2026-03-22T09:58:06Z</time>
      </trkpt>
      <trkpt lat="44.40271" lon="4.10618">
        <ele>284.21</ele>
        <time>2026-03-22T09:58:21Z</time>
      </trkpt>
      <trkpt lat="44.40271" lon="4.10619">
        <ele>282.77</ele>
        <time>2026-03-22T09:58:25Z</time>
      </trkpt>
      <trkpt lat="44.40271" lon="4.1062">
        <ele>284.69</ele>
        <time>2026-03-22T09:58:27Z</time>
      </trkpt>
      <trkpt lat="44.40271" lon="4.10622">
        <ele>283.25</ele>
        <time>2026-03-22T09:58:33Z</time>
      </trkpt>
      <trkpt lat="44.40271" lon="4.10622">
        <ele>283.73</ele>
        <time>2026-03-22T09:58:43Z</time>
      </trkpt>
      <trkpt lat="44.40271" lon="4.10622">
        <ele>285.17</ele>
        <time>2026-03-22T09:58:46Z</time>
      </trkpt>
      <trkpt lat="44.40271" lon="4.10622">
        <ele>281.32</ele>
        <time>2026-03-22T09:58:47Z</time>
      </trkpt>
      <trkpt lat="44.40271" lon="4.10622">
        <ele>286.13</ele>
        <time>2026-03-22T09:58:48Z</time>
      </trkpt>
      <trkpt lat="44.40271" lon="4.10622">
        <ele>281.32</ele>
        <time>2026-03-22T09:58:50Z</time>
      </trkpt>
      <trkpt lat="44.40271" lon="4.10622">
        <ele>284.69</ele>
        <time>2026-03-22T09:58:51Z</time>
      </trkpt>
      <trkpt lat="44.40269" lon="4.10609">
        <ele>284.69</ele>
        <time>2026-03-22T09:58:59Z</time>
      </trkpt>
      <trkpt lat="44.40267" lon="4.10599">
        <ele>283.25</ele>
        <time>2026-03-22T09:59:04Z</time>
      </trkpt>
      <trkpt lat="44.40265" lon="4.10588">
        <ele>282.28</ele>
        <time>2026-03-22T09:59:12Z</time>
      </trkpt>
      <trkpt lat="44.40264" lon="4.10588">
        <ele>282.28</ele>
        <time>2026-03-22T09:59:13Z</time>
      </trkpt>
      <trkpt lat="44.40263" lon="4.10584">
        <ele>285.65</ele>
        <time>2026-03-22T09:59:16Z</time>
      </trkpt>
      <trkpt lat="44.40262" lon="4.10583">
        <ele>282.77</ele>
        <time>2026-03-22T09:59:17Z</time>
      </trkpt>
      <trkpt lat="44.40262" lon="4.10583">
        <ele>283.25</ele>
        <time>2026-03-22T09:59:35Z</time>
      </trkpt>
      <trkpt lat="44.40262" lon="4.10583">
        <ele>282.77</ele>
        <time>2026-03-22T09:59:46Z</time>
      </trkpt>
      <trkpt lat="44.40261" lon="4.10576">
        <ele>284.69</ele>
        <time>2026-03-22T09:59:50Z</time>
      </trkpt>
      <trkpt lat="44.4026" lon="4.10566">
        <ele>280.84</ele>
        <time>2026-03-22T09:59:56Z</time>
      </trkpt>
      <trkpt lat="44.40259" lon="4.10565">
        <ele>289.01</ele>
        <time>2026-03-22T09:59:57Z</time>
      </trkpt>
      <trkpt lat="44.40258" lon="4.10562">
        <ele>286.13</ele>
        <time>2026-03-22T09:59:59Z</time>
      </trkpt>
      <trkpt lat="44.40257" lon="4.1056">
        <ele>286.13</ele>
        <time>2026-03-22T10:00:00Z</time>
      </trkpt>
      <trkpt lat="44.40253" lon="4.10554">
        <ele>287.57</ele>
        <time>2026-03-22T10:00:06Z</time>
      </trkpt>
      <trkpt lat="44.40252" lon="4.10541">
        <ele>287.57</ele>
        <time>2026-03-22T10:00:18Z</time>
      </trkpt>
      <trkpt lat="44.40245" lon="4.10531">
        <ele>289.01</ele>
        <time>2026-03-22T10:00:28Z</time>
      </trkpt>
      <trkpt lat="44.40242" lon="4.10517">
        <ele>289.97</ele>
        <time>2026-03-22T10:00:36Z</time>
      </trkpt>
      <trkpt lat="44.40238" lon="4.10505">
        <ele>290.94</ele>
        <time>2026-03-22T10:00:44Z</time>
      </trkpt>
      <trkpt lat="44.40237" lon="4.10504">
        <ele>290.94</ele>
        <time>2026-03-22T10:00:46Z</time>
      </trkpt>
      <trkpt lat="44.40234" lon="4.105">
        <ele>288.05</ele>
        <time>2026-03-22T10:00:50Z</time>
      </trkpt>
      <trkpt lat="44.40233" lon="4.10499">
        <ele>291.42</ele>
        <time>2026-03-22T10:00:51Z</time>
      </trkpt>
      <trkpt lat="44.40233" lon="4.10499">
        <ele>289.49</ele>
        <time>2026-03-22T10:00:52Z</time>
      </trkpt>
      <trkpt lat="44.4023" lon="4.10493">
        <ele>291.42</ele>
        <time>2026-03-22T10:00:57Z</time>
      </trkpt>
      <trkpt lat="44.40226" lon="4.1049">
        <ele>292.38</ele>
        <time>2026-03-22T10:01:02Z</time>
      </trkpt>
      <trkpt lat="44.40223" lon="4.10485">
        <ele>292.86</ele>
        <time>2026-03-22T10:01:08Z</time>
      </trkpt>
      <trkpt lat="44.40227" lon="4.10473">
        <ele>294.78</ele>
        <time>2026-03-22T10:01:18Z</time>
      </trkpt>
      <trkpt lat="44.40235" lon="4.10461">
        <ele>296.7</ele>
        <time>2026-03-22T10:01:35Z</time>
      </trkpt>
      <trkpt lat="44.40232" lon="4.10456">
        <ele>298.15</ele>
        <time>2026-03-22T10:01:40Z</time>
      </trkpt>
      <trkpt lat="44.40224" lon="4.10445">
        <ele>299.11</ele>
        <time>2026-03-22T10:01:55Z</time>
      </trkpt>
      <trkpt lat="44.40221" lon="4.10444">
        <ele>301.51</ele>
        <time>2026-03-22T10:01:58Z</time>
      </trkpt>
      <trkpt lat="44.4022" lon="4.10444">
        <ele>300.07</ele>
        <time>2026-03-22T10:02:00Z</time>
      </trkpt>
      <trkpt lat="44.40219" lon="4.10443">
        <ele>293.82</ele>
        <time>2026-03-22T10:02:01Z</time>
      </trkpt>
      <trkpt lat="44.40218" lon="4.10443">
        <ele>304.39</ele>
        <time>2026-03-22T10:02:02Z</time>
      </trkpt>
      <trkpt lat="44.40217" lon="4.10443">
        <ele>302.47</ele>
        <time>2026-03-22T10:02:03Z</time>
      </trkpt>
      <trkpt lat="44.40205" lon="4.10439">
        <ele>302.95</ele>
        <time>2026-03-22T10:02:17Z</time>
      </trkpt>
      <trkpt lat="44.40202" lon="4.10435">
        <ele>302.95</ele>
        <time>2026-03-22T10:02:23Z</time>
      </trkpt>
      <trkpt lat="44.402" lon="4.10429">
        <ele>303.43</ele>
        <time>2026-03-22T10:02:36Z</time>
      </trkpt>
      <trkpt lat="44.402" lon="4.1043">
        <ele>303.43</ele>
        <time>2026-03-22T10:02:37Z</time>
      </trkpt>
      <trkpt lat="44.402" lon="4.10431">
        <ele>304.39</ele>
        <time>2026-03-22T10:02:39Z</time>
      </trkpt>
      <trkpt lat="44.40203" lon="4.10437">
        <ele>302.47</ele>
        <time>2026-03-22T10:02:45Z</time>
      </trkpt>
      <trkpt lat="44.40204" lon="4.10435">
        <ele>301.51</ele>
        <time>2026-03-22T10:02:59Z</time>
      </trkpt>
      <trkpt lat="44.40204" lon="4.10435">
        <ele>303.91</ele>
        <time>2026-03-22T10:03:02Z</time>
      </trkpt>
      <trkpt lat="44.40205" lon="4.10439">
        <ele>299.59</ele>
        <time>2026-03-22T10:03:14Z</time>
      </trkpt>
      <trkpt lat="44.40205" lon="4.10439">
        <ele>303.91</ele>
        <time>2026-03-22T10:03:15Z</time>
      </trkpt>
      <trkpt lat="44.40205" lon="4.1044">
        <ele>301.99</ele>
        <time>2026-03-22T10:03:36Z</time>
      </trkpt>
      <trkpt lat="44.40207" lon="4.10443">
        <ele>302.47</ele>
        <time>2026-03-22T10:04:00Z</time>
      </trkpt>
      <trkpt lat="44.40207" lon="4.10443">
        <ele>301.03</ele>
        <time>2026-03-22T10:04:12Z</time>
      </trkpt>
      <trkpt lat="44.40207" lon="4.10443">
        <ele>298.15</ele>
        <time>2026-03-22T10:04:17Z</time>
      </trkpt>
      <trkpt lat="44.40207" lon="4.10442">
        <ele>306.8</ele>
        <time>2026-03-22T10:04:20Z</time>
      </trkpt>
      <trkpt lat="44.40209" lon="4.10443">
        <ele>302.47</ele>
        <time>2026-03-22T10:04:24Z</time>
      </trkpt>
      <trkpt lat="44.4021" lon="4.10444">
        <ele>302.47</ele>
        <time>2026-03-22T10:04:25Z</time>
      </trkpt>
      <trkpt lat="44.40214" lon="4.10445">
        <ele>301.99</ele>
        <time>2026-03-22T10:04:34Z</time>
      </trkpt>
      <trkpt lat="44.40216" lon="4.10446">
        <ele>298.15</ele>
        <time>2026-03-22T10:04:36Z</time>
      </trkpt>
      <trkpt lat="44.40217" lon="4.10446">
        <ele>302.95</ele>
        <time>2026-03-22T10:04:37Z</time>
      </trkpt>
      <trkpt lat="44.40221" lon="4.10444">
        <ele>301.51</ele>
        <time>2026-03-22T10:04:40Z</time>
      </trkpt>
      <trkpt lat="44.40226" lon="4.10443">
        <ele>300.55</ele>
        <time>2026-03-22T10:04:46Z</time>
      </trkpt>
      <trkpt lat="44.40237" lon="4.10459">
        <ele>297.67</ele>
        <time>2026-03-22T10:05:02Z</time>
      </trkpt>
      <trkpt lat="44.40237" lon="4.10465">
        <ele>297.18</ele>
        <time>2026-03-22T10:05:05Z</time>
      </trkpt>
      <trkpt lat="44.40235" lon="4.1047">
        <ele>295.74</ele>
        <time>2026-03-22T10:05:10Z</time>
      </trkpt>
      <trkpt lat="44.40232" lon="4.10471">
        <ele>294.78</ele>
        <time>2026-03-22T10:05:13Z</time>
      </trkpt>
      <trkpt lat="44.40226" lon="4.10477">
        <ele>294.3</ele>
        <time>2026-03-22T10:05:23Z</time>
      </trkpt>
      <trkpt lat="44.40218" lon="4.10478">
        <ele>294.3</ele>
        <time>2026-03-22T10:05:30Z</time>
      </trkpt>
      <trkpt lat="44.40215" lon="4.10479">
        <ele>294.3</ele>
        <time>2026-03-22T10:05:33Z</time>
      </trkpt>
      <trkpt lat="44.40204" lon="4.10475">
        <ele>293.34</ele>
        <time>2026-03-22T10:05:48Z</time>
      </trkpt>
      <trkpt lat="44.40204" lon="4.10474">
        <ele>295.26</ele>
        <time>2026-03-22T10:05:50Z</time>
      </trkpt>
      <trkpt lat="44.40203" lon="4.10475">
        <ele>295.26</ele>
        <time>2026-03-22T10:05:56Z</time>
      </trkpt>
      <trkpt lat="44.40199" lon="4.10475">
        <ele>293.82</ele>
        <time>2026-03-22T10:06:02Z</time>
      </trkpt>
      <trkpt lat="44.40198" lon="4.10477">
        <ele>295.74</ele>
        <time>2026-03-22T10:06:31Z</time>
      </trkpt>
      <trkpt lat="44.402" lon="4.1048">
        <ele>292.86</ele>
        <time>2026-03-22T10:06:40Z</time>
      </trkpt>
      <trkpt lat="44.40201" lon="4.10479">
        <ele>295.26</ele>
        <time>2026-03-22T10:06:42Z</time>
      </trkpt>
      <trkpt lat="44.40205" lon="4.10482">
        <ele>293.82</ele>
        <time>2026-03-22T10:06:48Z</time>
      </trkpt>
      <trkpt lat="44.40207" lon="4.10484">
        <ele>295.26</ele>
        <time>2026-03-22T10:06:51Z</time>
      </trkpt>
      <trkpt lat="44.40212" lon="4.10484">
        <ele>294.3</ele>
        <time>2026-03-22T10:06:57Z</time>
      </trkpt>
      <trkpt lat="44.40225" lon="4.10491">
        <ele>292.86</ele>
        <time>2026-03-22T10:07:14Z</time>
      </trkpt>
      <trkpt lat="44.40229" lon="4.10499">
        <ele>290.46</ele>
        <time>2026-03-22T10:07:21Z</time>
      </trkpt>
      <trkpt lat="44.40231" lon="4.105">
        <ele>291.9</ele>
        <time>2026-03-22T10:07:23Z</time>
      </trkpt>
      <trkpt lat="44.40233" lon="4.10505">
        <ele>288.53</ele>
        <time>2026-03-22T10:07:28Z</time>
      </trkpt>
      <trkpt lat="44.40233" lon="4.10506">
        <ele>288.53</ele>
        <time>2026-03-22T10:07:29Z</time>
      </trkpt>
      <trkpt lat="44.40235" lon="4.10507">
        <ele>291.42</ele>
        <time>2026-03-22T10:07:31Z</time>
      </trkpt>
      <trkpt lat="44.40242" lon="4.10523">
        <ele>288.53</ele>
        <time>2026-03-22T10:07:45Z</time>
      </trkpt>
      <trkpt lat="44.40243" lon="4.10525">
        <ele>288.53</ele>
        <time>2026-03-22T10:07:46Z</time>
      </trkpt>
      <trkpt lat="44.40254" lon="4.10545">
        <ele>288.05</ele>
        <time>2026-03-22T10:08:00Z</time>
      </trkpt>
      <trkpt lat="44.40254" lon="4.10549">
        <ele>286.61</ele>
        <time>2026-03-22T10:08:03Z</time>
      </trkpt>
      <trkpt lat="44.40254" lon="4.10552">
        <ele>286.61</ele>
        <time>2026-03-22T10:08:05Z</time>
      </trkpt>
      <trkpt lat="44.40259" lon="4.10579">
        <ele>284.69</ele>
        <time>2026-03-22T10:08:25Z</time>
      </trkpt>
      <trkpt lat="44.40264" lon="4.10592">
        <ele>284.21</ele>
        <time>2026-03-22T10:08:44Z</time>
      </trkpt>
      <trkpt lat="44.40274" lon="4.10619">
        <ele>284.21</ele>
        <time>2026-03-22T10:09:04Z</time>
      </trkpt>
      <trkpt lat="44.40271" lon="4.10644">
        <ele>281.32</ele>
        <time>2026-03-22T10:09:23Z</time>
      </trkpt>
      <trkpt lat="44.40265" lon="4.10675">
        <ele>278.92</ele>
        <time>2026-03-22T10:09:47Z</time>
      </trkpt>
      <trkpt lat="44.40266" lon="4.10673">
        <ele>278.44</ele>
        <time>2026-03-22T10:10:06Z</time>
      </trkpt>
      <trkpt lat="44.40262" lon="4.10673">
        <ele>278.44</ele>
        <time>2026-03-22T10:10:32Z</time>
      </trkpt>
      <trkpt lat="44.40265" lon="4.10695">
        <ele>277.96</ele>
        <time>2026-03-22T10:10:53Z</time>
      </trkpt>
      <trkpt lat="44.4027" lon="4.10729">
        <ele>277</ele>
        <time>2026-03-22T10:11:16Z</time>
      </trkpt>
      <trkpt lat="44.40275" lon="4.10762">
        <ele>277.48</ele>
        <time>2026-03-22T10:11:39Z</time>
      </trkpt>
      <trkpt lat="44.40274" lon="4.10778">
        <ele>276.52</ele>
        <time>2026-03-22T10:11:54Z</time>
      </trkpt>
      <trkpt lat="44.4027" lon="4.10803">
        <ele>273.63</ele>
        <time>2026-03-22T10:12:13Z</time>
      </trkpt>
      <trkpt lat="44.4027" lon="4.1083">
        <ele>272.19</ele>
        <time>2026-03-22T10:12:34Z</time>
      </trkpt>
      <trkpt lat="44.40273" lon="4.10876">
        <ele>270.27</ele>
        <time>2026-03-22T10:12:57Z</time>
      </trkpt>
      <trkpt lat="44.40277" lon="4.10917">
        <ele>269.31</ele>
        <time>2026-03-22T10:13:24Z</time>
      </trkpt>
      <trkpt lat="44.40278" lon="4.10948">
        <ele>268.35</ele>
        <time>2026-03-22T10:13:46Z</time>
      </trkpt>
      <trkpt lat="44.40272" lon="4.10947">
        <ele>267.86</ele>
        <time>2026-03-22T10:14:01Z</time>
      </trkpt>
    </trkseg>
  </trk>
</gpx>